sensor_id;sensor_type;location;lat;lon;timestamp;P1;durP1;ratioP1;P2;durP2;ratioP2
69046;SDS011;57261;47.504;19.084;2022-12-19T00:00:10;79.77;;;42.07;;
69046;SDS011;57261;47.504;19.084;2022-12-19T00:03:12;82.50;;;41.33;;
69046;SDS011;57261;47.504;19.084;2022-12-19T00:06:15;81.38;;;39.85;;
69046;SDS011;57261;47.504;19.084;2022-12-19T00:09:17;78.43;;;40.38;;
69046;SDS011;57261;47.504;19.084;2022-12-19T00:12:17;75.97;;;39.40;;
69046;SDS011;57261;47.504;19.084;2022-12-19T00:15:17;79.17;;;38.77;;
69046;SDS011;57261;47.504;19.084;2022-12-19T00:18:18;79.00;;;37.67;;
69046;SDS011;57261;47.504;19.084;2022-12-19T00:21:19;76.68;;;36.38;;
69046;SDS011;57261;47.504;19.084;2022-12-19T00:24:21;84.05;;;38.78;;
69046;SDS011;57261;47.504;19.084;2022-12-19T00:27:21;77.15;;;37.00;;
69046;SDS011;57261;47.504;19.084;2022-12-19T00:30:22;77.43;;;36.07;;
69046;SDS011;57261;47.504;19.084;2022-12-19T00:33:23;74.10;;;34.33;;
69046;SDS011;57261;47.504;19.084;2022-12-19T00:36:25;72.75;;;34.78;;
69046;SDS011;57261;47.504;19.084;2022-12-19T00:39:27;72.27;;;32.97;;
69046;SDS011;57261;47.504;19.084;2022-12-19T00:42:27;74.90;;;34.37;;
69046;SDS011;57261;47.504;19.084;2022-12-19T00:45:28;70.60;;;32.93;;
69046;SDS011;57261;47.504;19.084;2022-12-19T00:48:28;77.68;;;33.85;;
69046;SDS011;57261;47.504;19.084;2022-12-19T00:51:31;71.47;;;31.83;;
69046;SDS011;57261;47.504;19.084;2022-12-19T00:54:33;76.65;;;34.38;;
69046;SDS011;57261;47.504;19.084;2022-12-19T00:57:34;71.10;;;32.17;;
69046;SDS011;57261;47.504;19.084;2022-12-19T01:00:34;70.43;;;32.80;;
69046;SDS011;57261;47.504;19.084;2022-12-19T01:03:35;72.37;;;31.67;;
69046;SDS011;57261;47.504;19.084;2022-12-19T01:06:35;69.65;;;31.52;;
69046;SDS011;57261;47.504;19.084;2022-12-19T01:09:36;70.27;;;31.87;;
69046;SDS011;57261;47.504;19.084;2022-12-19T01:12:36;74.47;;;32.63;;
69046;SDS011;57261;47.504;19.084;2022-12-19T01:15:46;67.93;;;30.65;;
69046;SDS011;57261;47.504;19.084;2022-12-19T01:18:46;72.63;;;32.07;;
69046;SDS011;57261;47.504;19.084;2022-12-19T01:21:46;69.53;;;30.67;;
69046;SDS011;57261;47.504;19.084;2022-12-19T01:24:47;71.88;;;30.42;;
69046;SDS011;57261;47.504;19.084;2022-12-19T01:27:47;67.10;;;30.53;;
69046;SDS011;57261;47.504;19.084;2022-12-19T01:30:48;74.90;;;30.47;;
69046;SDS011;57261;47.504;19.084;2022-12-19T01:33:49;74.13;;;30.95;;
69046;SDS011;57261;47.504;19.084;2022-12-19T01:36:49;71.27;;;30.27;;
69046;SDS011;57261;47.504;19.084;2022-12-19T01:39:50;66.77;;;29.57;;
69046;SDS011;57261;47.504;19.084;2022-12-19T01:42:50;71.90;;;31.53;;
69046;SDS011;57261;47.504;19.084;2022-12-19T01:45:58;72.82;;;30.40;;
69046;SDS011;57261;47.504;19.084;2022-12-19T01:49:01;71.60;;;29.70;;
69046;SDS011;57261;47.504;19.084;2022-12-19T01:52:04;66.40;;;28.63;;
69046;SDS011;57261;47.504;19.084;2022-12-19T01:55:07;70.88;;;30.17;;
69046;SDS011;57261;47.504;19.084;2022-12-19T01:58:09;65.87;;;29.80;;
69046;SDS011;57261;47.504;19.084;2022-12-19T02:01:11;67.68;;;30.10;;
69046;SDS011;57261;47.504;19.084;2022-12-19T02:04:13;68.85;;;29.25;;
69046;SDS011;57261;47.504;19.084;2022-12-19T02:07:14;69.13;;;29.85;;
69046;SDS011;57261;47.504;19.084;2022-12-19T02:10:17;65.70;;;28.75;;
69046;SDS011;57261;47.504;19.084;2022-12-19T02:13:18;70.50;;;30.40;;
69046;SDS011;57261;47.504;19.084;2022-12-19T02:20:02;68.40;;;29.25;;
69046;SDS011;57261;47.504;19.084;2022-12-19T02:33:56;68.97;;;28.73;;
69046;SDS011;57261;47.504;19.084;2022-12-19T02:37:01;71.45;;;28.33;;
69046;SDS011;57261;47.504;19.084;2022-12-19T02:43:14;68.20;;;28.52;;
69046;SDS011;57261;47.504;19.084;2022-12-19T02:46:17;69.93;;;28.45;;
69046;SDS011;57261;47.504;19.084;2022-12-19T02:49:19;69.77;;;28.40;;
69046;SDS011;57261;47.504;19.084;2022-12-19T02:55:21;66.20;;;27.60;;
69046;SDS011;57261;47.504;19.084;2022-12-19T02:58:28;73.97;;;29.42;;
69046;SDS011;57261;47.504;19.084;2022-12-19T03:07:48;74.53;;;28.80;;
69046;SDS011;57261;47.504;19.084;2022-12-19T03:10:57;71.93;;;29.05;;
69046;SDS011;57261;47.504;19.084;2022-12-19T03:14:01;69.13;;;27.98;;
69046;SDS011;57261;47.504;19.084;2022-12-19T03:17:06;69.10;;;27.67;;
69046;SDS011;57261;47.504;19.084;2022-12-19T03:20:08;66.07;;;27.58;;
69046;SDS011;57261;47.504;19.084;2022-12-19T03:23:18;64.22;;;28.42;;
69046;SDS011;57261;47.504;19.084;2022-12-19T03:26:20;69.85;;;27.77;;
69046;SDS011;57261;47.504;19.084;2022-12-19T03:29:24;72.07;;;29.48;;
69046;SDS011;57261;47.504;19.084;2022-12-19T03:32:28;69.90;;;27.95;;
69046;SDS011;57261;47.504;19.084;2022-12-19T03:35:31;66.65;;;26.90;;
69046;SDS011;57261;47.504;19.084;2022-12-19T03:38:34;65.47;;;27.83;;
69046;SDS011;57261;47.504;19.084;2022-12-19T03:41:39;70.90;;;27.85;;
69046;SDS011;57261;47.504;19.084;2022-12-19T03:45:03;69.80;;;28.08;;
69046;SDS011;57261;47.504;19.084;2022-12-19T03:48:22;71.83;;;29.03;;
69046;SDS011;57261;47.504;19.084;2022-12-19T03:54:47;75.57;;;29.70;;
69046;SDS011;57261;47.504;19.084;2022-12-19T03:58:01;72.97;;;29.20;;
69046;SDS011;57261;47.504;19.084;2022-12-19T04:01:08;74.35;;;30.58;;
69046;SDS011;57261;47.504;19.084;2022-12-19T04:04:09;71.72;;;29.70;;
69046;SDS011;57261;47.504;19.084;2022-12-19T04:07:11;70.88;;;28.10;;
69046;SDS011;57261;47.504;19.084;2022-12-19T04:10:17;70.00;;;28.30;;
69046;SDS011;57261;47.504;19.084;2022-12-19T04:13:22;78.75;;;29.73;;
69046;SDS011;57261;47.504;19.084;2022-12-19T04:26:13;72.47;;;28.08;;
69046;SDS011;57261;47.504;19.084;2022-12-19T04:29:17;77.43;;;29.35;;
69046;SDS011;57261;47.504;19.084;2022-12-19T04:32:18;77.22;;;29.80;;
69046;SDS011;57261;47.504;19.084;2022-12-19T04:35:20;75.13;;;28.33;;
69046;SDS011;57261;47.504;19.084;2022-12-19T04:38:21;74.53;;;29.15;;
69046;SDS011;57261;47.504;19.084;2022-12-19T04:41:22;74.83;;;29.33;;
69046;SDS011;57261;47.504;19.084;2022-12-19T04:44:22;73.00;;;29.27;;
69046;SDS011;57261;47.504;19.084;2022-12-19T04:47:23;72.25;;;28.95;;
69046;SDS011;57261;47.504;19.084;2022-12-19T04:50:24;70.93;;;29.23;;
69046;SDS011;57261;47.504;19.084;2022-12-19T04:53:24;71.67;;;28.57;;
69046;SDS011;57261;47.504;19.084;2022-12-19T04:56:25;71.33;;;28.37;;
69046;SDS011;57261;47.504;19.084;2022-12-19T04:59:25;73.75;;;29.45;;
69046;SDS011;57261;47.504;19.084;2022-12-19T05:02:25;75.50;;;30.53;;
69046;SDS011;57261;47.504;19.084;2022-12-19T05:05:29;79.22;;;30.70;;
69046;SDS011;57261;47.504;19.084;2022-12-19T05:08:30;73.68;;;29.90;;
69046;SDS011;57261;47.504;19.084;2022-12-19T05:11:30;70.30;;;28.50;;
69046;SDS011;57261;47.504;19.084;2022-12-19T05:14:31;74.80;;;28.67;;
69046;SDS011;57261;47.504;19.084;2022-12-19T05:17:31;77.50;;;28.27;;
69046;SDS011;57261;47.504;19.084;2022-12-19T05:20:32;79.17;;;29.93;;
69046;SDS011;57261;47.504;19.084;2022-12-19T05:23:35;74.27;;;29.83;;
69046;SDS011;57261;47.504;19.084;2022-12-19T05:26:36;73.07;;;27.60;;
69046;SDS011;57261;47.504;19.084;2022-12-19T05:29:37;74.53;;;29.13;;
69046;SDS011;57261;47.504;19.084;2022-12-19T05:32:37;78.83;;;29.63;;
69046;SDS011;57261;47.504;19.084;2022-12-19T05:35:38;75.90;;;30.37;;
69046;SDS011;57261;47.504;19.084;2022-12-19T05:38:39;75.82;;;28.58;;
69046;SDS011;57261;47.504;19.084;2022-12-19T05:41:40;78.35;;;29.55;;
69046;SDS011;57261;47.504;19.084;2022-12-19T05:44:40;73.90;;;28.50;;
69046;SDS011;57261;47.504;19.084;2022-12-19T05:47:43;73.90;;;29.17;;
69046;SDS011;57261;47.504;19.084;2022-12-19T05:50:46;76.32;;;28.95;;
69046;SDS011;57261;47.504;19.084;2022-12-19T05:53:48;75.15;;;29.27;;
69046;SDS011;57261;47.504;19.084;2022-12-19T05:56:48;75.63;;;29.45;;
69046;SDS011;57261;47.504;19.084;2022-12-19T05:59:48;79.10;;;30.20;;
69046;SDS011;57261;47.504;19.084;2022-12-19T06:02:49;78.83;;;28.77;;
69046;SDS011;57261;47.504;19.084;2022-12-19T06:05:50;70.80;;;27.52;;
69046;SDS011;57261;47.504;19.084;2022-12-19T06:08:54;70.33;;;28.40;;
69046;SDS011;57261;47.504;19.084;2022-12-19T06:11:56;75.70;;;30.20;;
69046;SDS011;57261;47.504;19.084;2022-12-19T06:14:56;73.32;;;29.27;;
69046;SDS011;57261;47.504;19.084;2022-12-19T06:17:56;74.75;;;28.38;;
69046;SDS011;57261;47.504;19.084;2022-12-19T06:21:02;69.00;;;27.70;;
69046;SDS011;57261;47.504;19.084;2022-12-19T06:24:05;73.35;;;28.50;;
69046;SDS011;57261;47.504;19.084;2022-12-19T06:27:06;73.25;;;29.55;;
69046;SDS011;57261;47.504;19.084;2022-12-19T06:30:06;77.35;;;28.13;;
69046;SDS011;57261;47.504;19.084;2022-12-19T06:33:07;73.60;;;28.50;;
69046;SDS011;57261;47.504;19.084;2022-12-19T06:36:24;73.17;;;29.50;;
69046;SDS011;57261;47.504;19.084;2022-12-19T06:39:26;76.03;;;29.60;;
69046;SDS011;57261;47.504;19.084;2022-12-19T06:42:26;80.43;;;30.03;;
69046;SDS011;57261;47.504;19.084;2022-12-19T06:45:27;73.57;;;30.30;;
69046;SDS011;57261;47.504;19.084;2022-12-19T06:48:27;75.10;;;30.60;;
69046;SDS011;57261;47.504;19.084;2022-12-19T06:51:30;76.32;;;29.52;;
69046;SDS011;57261;47.504;19.084;2022-12-19T06:54:31;78.87;;;31.43;;
69046;SDS011;57261;47.504;19.084;2022-12-19T06:57:31;71.65;;;29.33;;
69046;SDS011;57261;47.504;19.084;2022-12-19T07:00:34;70.50;;;29.30;;
69046;SDS011;57261;47.504;19.084;2022-12-19T07:03:35;74.20;;;28.90;;
69046;SDS011;57261;47.504;19.084;2022-12-19T07:06:39;69.18;;;29.70;;
69046;SDS011;57261;47.504;19.084;2022-12-19T07:09:39;74.37;;;29.37;;
69046;SDS011;57261;47.504;19.084;2022-12-19T07:12:47;67.28;;;27.60;;
69046;SDS011;57261;47.504;19.084;2022-12-19T07:15:48;72.10;;;29.10;;
69046;SDS011;57261;47.504;19.084;2022-12-19T07:18:50;69.75;;;28.92;;
69046;SDS011;57261;47.504;19.084;2022-12-19T07:21:50;69.07;;;28.53;;
69046;SDS011;57261;47.504;19.084;2022-12-19T07:24:51;71.67;;;28.97;;
69046;SDS011;57261;47.504;19.084;2022-12-19T07:27:51;67.90;;;28.83;;
69046;SDS011;57261;47.504;19.084;2022-12-19T07:30:51;73.53;;;28.83;;
69046;SDS011;57261;47.504;19.084;2022-12-19T07:33:52;68.00;;;26.80;;
69046;SDS011;57261;47.504;19.084;2022-12-19T07:36:52;64.20;;;27.23;;
69046;SDS011;57261;47.504;19.084;2022-12-19T07:39:53;63.47;;;28.07;;
69046;SDS011;57261;47.504;19.084;2022-12-19T07:42:53;67.53;;;28.03;;
69046;SDS011;57261;47.504;19.084;2022-12-19T07:45:54;67.23;;;27.83;;
69046;SDS011;57261;47.504;19.084;2022-12-19T07:48:55;65.95;;;26.65;;
69046;SDS011;57261;47.504;19.084;2022-12-19T07:51:56;62.78;;;25.70;;
69046;SDS011;57261;47.504;19.084;2022-12-19T07:54:56;62.83;;;26.10;;
69046;SDS011;57261;47.504;19.084;2022-12-19T07:57:57;65.40;;;26.13;;
69046;SDS011;57261;47.504;19.084;2022-12-19T08:01:01;64.55;;;26.92;;
69046;SDS011;57261;47.504;19.084;2022-12-19T08:04:02;60.33;;;24.77;;
69046;SDS011;57261;47.504;19.084;2022-12-19T08:07:02;63.10;;;25.73;;
69046;SDS011;57261;47.504;19.084;2022-12-19T08:10:04;59.92;;;25.45;;
69046;SDS011;57261;47.504;19.084;2022-12-19T08:13:09;58.53;;;24.37;;
69046;SDS011;57261;47.504;19.084;2022-12-19T08:16:09;58.15;;;24.63;;
69046;SDS011;57261;47.504;19.084;2022-12-19T08:19:10;58.03;;;25.25;;
69046;SDS011;57261;47.504;19.084;2022-12-19T08:22:11;60.13;;;25.83;;
69046;SDS011;57261;47.504;19.084;2022-12-19T08:25:11;57.27;;;25.00;;
69046;SDS011;57261;47.504;19.084;2022-12-19T08:28:12;57.70;;;23.37;;
69046;SDS011;57261;47.504;19.084;2022-12-19T08:31:14;52.13;;;22.33;;
69046;SDS011;57261;47.504;19.084;2022-12-19T08:34:16;54.28;;;22.70;;
69046;SDS011;57261;47.504;19.084;2022-12-19T08:37:18;51.70;;;22.63;;
69046;SDS011;57261;47.504;19.084;2022-12-19T08:40:20;53.42;;;22.73;;
69046;SDS011;57261;47.504;19.084;2022-12-19T08:43:22;52.03;;;21.77;;
69046;SDS011;57261;47.504;19.084;2022-12-19T08:46:23;51.63;;;21.47;;
69046;SDS011;57261;47.504;19.084;2022-12-19T08:49:24;44.88;;;20.52;;
69046;SDS011;57261;47.504;19.084;2022-12-19T08:52:25;44.90;;;20.57;;
69046;SDS011;57261;47.504;19.084;2022-12-19T08:55:25;48.30;;;20.27;;
69046;SDS011;57261;47.504;19.084;2022-12-19T08:58:26;46.47;;;19.65;;
69046;SDS011;57261;47.504;19.084;2022-12-19T09:01:28;48.35;;;19.45;;
69046;SDS011;57261;47.504;19.084;2022-12-19T09:04:28;47.33;;;20.20;;
69046;SDS011;57261;47.504;19.084;2022-12-19T09:07:29;46.55;;;20.30;;
69046;SDS011;57261;47.504;19.084;2022-12-19T09:10:29;43.80;;;18.77;;
69046;SDS011;57261;47.504;19.084;2022-12-19T09:13:30;45.70;;;19.63;;
69046;SDS011;57261;47.504;19.084;2022-12-19T09:16:31;45.30;;;19.90;;
69046;SDS011;57261;47.504;19.084;2022-12-19T09:19:32;45.03;;;19.13;;
69046;SDS011;57261;47.504;19.084;2022-12-19T09:22:32;43.40;;;19.63;;
69046;SDS011;57261;47.504;19.084;2022-12-19T09:25:33;44.15;;;18.67;;
69046;SDS011;57261;47.504;19.084;2022-12-19T09:28:33;49.20;;;20.55;;
69046;SDS011;57261;47.504;19.084;2022-12-19T09:31:35;41.33;;;19.63;;
69046;SDS011;57261;47.504;19.084;2022-12-19T09:34:35;42.03;;;18.80;;
69046;SDS011;57261;47.504;19.084;2022-12-19T09:37:37;45.47;;;19.67;;
69046;SDS011;57261;47.504;19.084;2022-12-19T09:47:28;39.45;;;18.50;;
69046;SDS011;57261;47.504;19.084;2022-12-19T09:54:13;40.47;;;18.77;;
69046;SDS011;57261;47.504;19.084;2022-12-19T10:01:20;41.83;;;18.05;;
69046;SDS011;57261;47.504;19.084;2022-12-19T10:04:25;48.80;;;18.63;;
69046;SDS011;57261;47.504;19.084;2022-12-19T10:07:28;43.70;;;18.08;;
69046;SDS011;57261;47.504;19.084;2022-12-19T10:10:52;43.00;;;17.83;;
69046;SDS011;57261;47.504;19.084;2022-12-19T10:20:48;44.38;;;18.90;;
69046;SDS011;57261;47.504;19.084;2022-12-19T10:24:20;43.47;;;17.20;;
69046;SDS011;57261;47.504;19.084;2022-12-19T10:27:28;41.75;;;17.77;;
69046;SDS011;57261;47.504;19.084;2022-12-19T10:30:45;42.45;;;18.52;;
69046;SDS011;57261;47.504;19.084;2022-12-19T10:37:16;43.78;;;17.83;;
69046;SDS011;57261;47.504;19.084;2022-12-19T10:40:36;40.55;;;17.88;;
69046;SDS011;57261;47.504;19.084;2022-12-19T10:43:49;44.22;;;18.48;;
69046;SDS011;57261;47.504;19.084;2022-12-19T10:47:02;44.97;;;19.23;;
69046;SDS011;57261;47.504;19.084;2022-12-19T10:50:02;42.75;;;18.80;;
69046;SDS011;57261;47.504;19.084;2022-12-19T10:56:20;41.37;;;18.33;;
69046;SDS011;57261;47.504;19.084;2022-12-19T10:59:23;38.05;;;16.63;;
69046;SDS011;57261;47.504;19.084;2022-12-19T11:05:47;40.72;;;17.50;;
69046;SDS011;57261;47.504;19.084;2022-12-19T11:08:49;44.60;;;19.23;;
69046;SDS011;57261;47.504;19.084;2022-12-19T11:12:00;38.15;;;17.52;;
69046;SDS011;57261;47.504;19.084;2022-12-19T11:15:14;41.67;;;18.52;;
69046;SDS011;57261;47.504;19.084;2022-12-19T11:18:15;39.65;;;17.67;;
69046;SDS011;57261;47.504;19.084;2022-12-19T11:21:29;42.80;;;17.90;;
69046;SDS011;57261;47.504;19.084;2022-12-19T11:24:42;40.17;;;17.70;;
69046;SDS011;57261;47.504;19.084;2022-12-19T11:27:46;39.38;;;17.80;;
69046;SDS011;57261;47.504;19.084;2022-12-19T11:31:23;41.37;;;17.27;;
69046;SDS011;57261;47.504;19.084;2022-12-19T11:34:24;45.70;;;18.23;;
69046;SDS011;57261;47.504;19.084;2022-12-19T11:37:36;40.28;;;17.40;;
69046;SDS011;57261;47.504;19.084;2022-12-19T11:40:42;40.05;;;18.77;;
69046;SDS011;57261;47.504;19.084;2022-12-19T11:50:49;40.10;;;17.75;;
69046;SDS011;57261;47.504;19.084;2022-12-19T11:57:12;40.92;;;18.27;;
69046;SDS011;57261;47.504;19.084;2022-12-19T12:00:15;40.30;;;17.50;;
69046;SDS011;57261;47.504;19.084;2022-12-19T12:03:32;37.85;;;17.95;;
69046;SDS011;57261;47.504;19.084;2022-12-19T12:06:47;41.00;;;18.60;;
69046;SDS011;57261;47.504;19.084;2022-12-19T12:09:54;42.50;;;19.00;;
69046;SDS011;57261;47.504;19.084;2022-12-19T12:13:15;42.85;;;19.27;;
69046;SDS011;57261;47.504;19.084;2022-12-19T12:16:24;40.72;;;18.55;;
69046;SDS011;57261;47.504;19.084;2022-12-19T12:26:30;40.08;;;17.98;;
69046;SDS011;57261;47.504;19.084;2022-12-19T12:40:51;42.40;;;18.45;;
69046;SDS011;57261;47.504;19.084;2022-12-19T12:47:14;43.97;;;18.75;;
69046;SDS011;57261;47.504;19.084;2022-12-19T12:50:20;39.50;;;18.25;;
69046;SDS011;57261;47.504;19.084;2022-12-19T12:53:24;40.22;;;17.70;;
69046;SDS011;57261;47.504;19.084;2022-12-19T12:56:31;40.53;;;18.37;;
69046;SDS011;57261;47.504;19.084;2022-12-19T12:59:32;39.40;;;17.48;;
69046;SDS011;57261;47.504;19.084;2022-12-19T13:02:32;41.87;;;17.67;;
69046;SDS011;57261;47.504;19.084;2022-12-19T13:11:46;47.50;;;17.83;;
69046;SDS011;57261;47.504;19.084;2022-12-19T13:18:38;38.95;;;17.73;;
69046;SDS011;57261;47.504;19.084;2022-12-19T13:22:22;46.00;;;18.02;;
69046;SDS011;57261;47.504;19.084;2022-12-19T13:25:28;42.47;;;17.42;;
69046;SDS011;57261;47.504;19.084;2022-12-19T13:31:26;41.38;;;16.95;;
69046;SDS011;57261;47.504;19.084;2022-12-19T13:34:33;42.58;;;18.45;;
69046;SDS011;57261;47.504;19.084;2022-12-19T13:43:43;39.20;;;18.20;;
69046;SDS011;57261;47.504;19.084;2022-12-19T13:46:46;41.40;;;18.45;;
69046;SDS011;57261;47.504;19.084;2022-12-19T13:49:47;40.22;;;18.08;;
69046;SDS011;57261;47.504;19.084;2022-12-19T13:52:50;40.67;;;18.08;;
69046;SDS011;57261;47.504;19.084;2022-12-19T13:55:52;41.22;;;19.05;;
69046;SDS011;57261;47.504;19.084;2022-12-19T13:59:14;40.45;;;17.27;;
69046;SDS011;57261;47.504;19.084;2022-12-19T14:02:26;38.53;;;17.33;;
69046;SDS011;57261;47.504;19.084;2022-12-19T14:05:31;39.47;;;17.45;;
69046;SDS011;57261;47.504;19.084;2022-12-19T14:08:39;39.30;;;18.23;;
69046;SDS011;57261;47.504;19.084;2022-12-19T14:11:40;39.73;;;18.13;;
69046;SDS011;57261;47.504;19.084;2022-12-19T14:14:49;40.80;;;17.98;;
69046;SDS011;57261;47.504;19.084;2022-12-19T14:21:24;40.72;;;18.05;;
69046;SDS011;57261;47.504;19.084;2022-12-19T14:24:26;39.03;;;17.58;;
69046;SDS011;57261;47.504;19.084;2022-12-19T14:27:29;43.53;;;18.27;;
69046;SDS011;57261;47.504;19.084;2022-12-19T14:30:36;41.40;;;18.40;;
69046;SDS011;57261;47.504;19.084;2022-12-19T14:33:41;38.73;;;16.97;;
69046;SDS011;57261;47.504;19.084;2022-12-19T14:36:51;39.80;;;17.30;;
69046;SDS011;57261;47.504;19.084;2022-12-19T14:39:58;43.10;;;18.17;;
69046;SDS011;57261;47.504;19.084;2022-12-19T14:43:15;43.63;;;19.13;;
69046;SDS011;57261;47.504;19.084;2022-12-19T14:46:39;44.70;;;18.95;;
69046;SDS011;57261;47.504;19.084;2022-12-19T14:49:39;42.47;;;18.67;;
69046;SDS011;57261;47.504;19.084;2022-12-19T14:52:41;40.33;;;18.63;;
69046;SDS011;57261;47.504;19.084;2022-12-19T14:55:45;39.95;;;18.83;;
69046;SDS011;57261;47.504;19.084;2022-12-19T14:58:56;41.65;;;18.13;;
69046;SDS011;57261;47.504;19.084;2022-12-19T15:05:07;42.60;;;18.60;;
69046;SDS011;57261;47.504;19.084;2022-12-19T15:08:15;43.63;;;19.13;;
69046;SDS011;57261;47.504;19.084;2022-12-19T15:11:32;44.95;;;19.42;;
69046;SDS011;57261;47.504;19.084;2022-12-19T15:14:59;43.33;;;18.70;;
69046;SDS011;57261;47.504;19.084;2022-12-19T15:21:21;42.53;;;19.20;;
69046;SDS011;57261;47.504;19.084;2022-12-19T15:24:22;43.83;;;19.17;;
69046;SDS011;57261;47.504;19.084;2022-12-19T15:27:22;43.77;;;19.30;;
69046;SDS011;57261;47.504;19.084;2022-12-19T15:30:22;40.23;;;18.87;;
69046;SDS011;57261;47.504;19.084;2022-12-19T15:33:23;41.85;;;18.45;;
69046;SDS011;57261;47.504;19.084;2022-12-19T15:36:24;37.67;;;18.70;;
69046;SDS011;57261;47.504;19.084;2022-12-19T15:39:24;40.83;;;17.95;;
69046;SDS011;57261;47.504;19.084;2022-12-19T15:42:28;41.13;;;18.13;;
69046;SDS011;57261;47.504;19.084;2022-12-19T15:45:29;45.28;;;19.40;;
69046;SDS011;57261;47.504;19.084;2022-12-19T15:48:32;43.38;;;19.25;;
69046;SDS011;57261;47.504;19.084;2022-12-19T15:51:35;43.85;;;19.15;;
69046;SDS011;57261;47.504;19.084;2022-12-19T15:54:36;42.67;;;18.93;;
69046;SDS011;57261;47.504;19.084;2022-12-19T15:57:37;43.90;;;19.67;;
69046;SDS011;57261;47.504;19.084;2022-12-19T16:00:41;41.80;;;18.15;;
69046;SDS011;57261;47.504;19.084;2022-12-19T16:03:49;41.67;;;18.60;;
69046;SDS011;57261;47.504;19.084;2022-12-19T16:06:50;44.53;;;18.83;;
69046;SDS011;57261;47.504;19.084;2022-12-19T16:09:51;42.93;;;18.37;;
69046;SDS011;57261;47.504;19.084;2022-12-19T16:12:57;40.85;;;19.23;;
69046;SDS011;57261;47.504;19.084;2022-12-19T16:15:58;43.03;;;19.00;;
69046;SDS011;57261;47.504;19.084;2022-12-19T16:18:58;41.20;;;19.23;;
69046;SDS011;57261;47.504;19.084;2022-12-19T16:21:58;43.13;;;18.47;;
69046;SDS011;57261;47.504;19.084;2022-12-19T16:24:59;41.63;;;19.60;;
69046;SDS011;57261;47.504;19.084;2022-12-19T16:28:00;44.50;;;19.07;;
69046;SDS011;57261;47.504;19.084;2022-12-19T16:31:12;40.47;;;18.50;;
69046;SDS011;57261;47.504;19.084;2022-12-19T16:34:16;43.50;;;18.35;;
69046;SDS011;57261;47.504;19.084;2022-12-19T16:37:18;44.25;;;19.88;;
69046;SDS011;57261;47.504;19.084;2022-12-19T16:40:23;41.40;;;18.53;;
69046;SDS011;57261;47.504;19.084;2022-12-19T16:43:27;41.70;;;19.10;;
69046;SDS011;57261;47.504;19.084;2022-12-19T16:46:36;44.70;;;19.50;;
69046;SDS011;57261;47.504;19.084;2022-12-19T16:49:37;45.72;;;20.10;;
69046;SDS011;57261;47.504;19.084;2022-12-19T16:52:37;42.77;;;18.50;;
69046;SDS011;57261;47.504;19.084;2022-12-19T16:55:38;45.50;;;19.93;;
69046;SDS011;57261;47.504;19.084;2022-12-19T16:58:39;45.47;;;19.77;;
69046;SDS011;57261;47.504;19.084;2022-12-19T17:01:40;42.87;;;19.87;;
69046;SDS011;57261;47.504;19.084;2022-12-19T17:04:42;43.03;;;19.70;;
69046;SDS011;57261;47.504;19.084;2022-12-19T17:07:42;43.70;;;19.10;;
69046;SDS011;57261;47.504;19.084;2022-12-19T17:10:43;43.23;;;19.70;;
69046;SDS011;57261;47.504;19.084;2022-12-19T17:13:46;45.83;;;19.70;;
69046;SDS011;57261;47.504;19.084;2022-12-19T17:16:50;45.00;;;19.70;;
69046;SDS011;57261;47.504;19.084;2022-12-19T17:19:54;46.77;;;20.20;;
69046;SDS011;57261;47.504;19.084;2022-12-19T17:22:54;51.30;;;20.60;;
69046;SDS011;57261;47.504;19.084;2022-12-19T17:25:54;46.17;;;18.60;;
69046;SDS011;57261;47.504;19.084;2022-12-19T17:28:55;44.57;;;19.17;;
69046;SDS011;57261;47.504;19.084;2022-12-19T17:31:55;44.20;;;19.90;;
69046;SDS011;57261;47.504;19.084;2022-12-19T17:34:57;44.90;;;19.23;;
69046;SDS011;57261;47.504;19.084;2022-12-19T17:37:58;43.07;;;19.80;;
69046;SDS011;57261;47.504;19.084;2022-12-19T17:40:59;44.23;;;19.50;;
69046;SDS011;57261;47.504;19.084;2022-12-19T17:43:59;44.05;;;19.42;;
69046;SDS011;57261;47.504;19.084;2022-12-19T17:47:01;43.42;;;20.08;;
69046;SDS011;57261;47.504;19.084;2022-12-19T17:50:01;46.40;;;20.43;;
69046;SDS011;57261;47.504;19.084;2022-12-19T17:53:02;45.63;;;20.48;;
69046;SDS011;57261;47.504;19.084;2022-12-19T17:56:03;42.75;;;19.20;;
69046;SDS011;57261;47.504;19.084;2022-12-19T17:59:04;42.67;;;19.87;;
69046;SDS011;57261;47.504;19.084;2022-12-19T18:02:10;44.80;;;20.37;;
69046;SDS011;57261;47.504;19.084;2022-12-19T18:05:23;44.50;;;21.13;;
69046;SDS011;57261;47.504;19.084;2022-12-19T18:08:28;44.50;;;20.45;;
69046;SDS011;57261;47.504;19.084;2022-12-19T18:11:32;46.37;;;20.80;;
69046;SDS011;57261;47.504;19.084;2022-12-19T18:14:33;45.75;;;20.30;;
69046;SDS011;57261;47.504;19.084;2022-12-19T18:17:34;47.70;;;20.63;;
69046;SDS011;57261;47.504;19.084;2022-12-19T18:20:34;42.90;;;19.85;;
69046;SDS011;57261;47.504;19.084;2022-12-19T18:23:35;45.90;;;20.90;;
69046;SDS011;57261;47.504;19.084;2022-12-19T18:26:35;44.00;;;20.50;;
69046;SDS011;57261;47.504;19.084;2022-12-19T18:29:36;44.33;;;19.43;;
69046;SDS011;57261;47.504;19.084;2022-12-19T18:32:36;46.33;;;20.88;;
69046;SDS011;57261;47.504;19.084;2022-12-19T18:35:38;45.78;;;20.38;;
69046;SDS011;57261;47.504;19.084;2022-12-19T18:38:41;42.70;;;20.23;;
69046;SDS011;57261;47.504;19.084;2022-12-19T18:41:41;45.28;;;20.30;;
69046;SDS011;57261;47.504;19.084;2022-12-19T18:44:42;44.13;;;20.27;;
69046;SDS011;57261;47.504;19.084;2022-12-19T18:47:43;46.40;;;19.40;;
69046;SDS011;57261;47.504;19.084;2022-12-19T18:50:48;45.95;;;20.27;;
69046;SDS011;57261;47.504;19.084;2022-12-19T18:53:50;42.15;;;20.38;;
69046;SDS011;57261;47.504;19.084;2022-12-19T18:56:51;42.05;;;20.27;;
69046;SDS011;57261;47.504;19.084;2022-12-19T18:59:52;44.97;;;19.57;;
69046;SDS011;57261;47.504;19.084;2022-12-19T19:03:00;42.27;;;19.00;;
69046;SDS011;57261;47.504;19.084;2022-12-19T19:06:04;47.45;;;20.73;;
69046;SDS011;57261;47.504;19.084;2022-12-19T19:09:16;48.05;;;20.83;;
69046;SDS011;57261;47.504;19.084;2022-12-19T19:12:17;43.42;;;20.40;;
69046;SDS011;57261;47.504;19.084;2022-12-19T19:15:18;48.20;;;21.67;;
69046;SDS011;57261;47.504;19.084;2022-12-19T19:18:21;44.13;;;21.20;;
69046;SDS011;57261;47.504;19.084;2022-12-19T19:21:26;44.10;;;19.50;;
69046;SDS011;57261;47.504;19.084;2022-12-19T19:24:28;45.35;;;20.38;;
69046;SDS011;57261;47.504;19.084;2022-12-19T19:27:29;43.60;;;20.50;;
69046;SDS011;57261;47.504;19.084;2022-12-19T19:30:30;46.97;;;21.27;;
69046;SDS011;57261;47.504;19.084;2022-12-19T19:33:33;45.42;;;20.85;;
69046;SDS011;57261;47.504;19.084;2022-12-19T19:36:36;45.20;;;20.83;;
69046;SDS011;57261;47.504;19.084;2022-12-19T19:39:39;45.17;;;20.25;;
69046;SDS011;57261;47.504;19.084;2022-12-19T19:42:40;46.57;;;20.57;;
69046;SDS011;57261;47.504;19.084;2022-12-19T19:45:41;46.33;;;20.50;;
69046;SDS011;57261;47.504;19.084;2022-12-19T19:48:42;46.42;;;21.05;;